Time;durP1;ratioP1;P1;durP2;ratioP2;P2;SDS_P1;SDS_P2;PMS_P1;PMS_P2;Temp;Humidity;BMP_temperature;BMP_pressure;BME280_temperature;BME280_humidity;BME280_pressure;Samples;Min_cycle;Max_cycle;Signal;HPM_P1;HPM_P2
2022/05/31 00:01:45;;;;;;;0.10;0.10;;;;;;;;;;5120555;27;20241;-80
2022/05/31 00:04:12;;;;;;;0.10;0.10;;;;;;;;;;5113135;27;20225;-80
2022/05/31 00:06:39;;;;;;;0.10;0.10;;;;;;;;;;5120958;27;20317;-80
2022/05/31 00:09:05;;;;;;;0.10;0.10;;;;;;;;;;5113427;27;20203;-80
2022/05/31 00:11:31;;;;;;;0.10;0.10;;;;;;;;;;5119172;27;20312;-81
2022/05/31 00:13:59;;;;;;;0.10;0.10;;;;;;;;;;5115005;27;20209;-80
2022/05/31 00:16:25;;;;;;;0.10;0.10;;;;;;;;;;5117635;27;20242;-81
2022/05/31 00:18:52;;;;;;;0.10;0.10;;;;;;;;;;5116677;27;20204;-81
2022/05/31 00:21:18;;;;;;;0.10;0.10;;;;;;;;;;5115858;27;20250;-80
2022/05/31 00:23:44;;;;;;;0.10;0.10;;;;;;;;;;5118533;27;20267;-80
2022/05/31 00:26:11;;;;;;;0.10;0.10;;;;;;;;;;5113146;27;20563;-80
2022/05/31 00:28:37;;;;;;;0.10;0.10;;;;;;;;;;5120927;27;20219;-80
2022/05/31 00:31:07;;;;;;;0.10;0.10;;;;;;;;;;5111286;27;20237;-79
2022/05/31 00:33:33;;;;;;;0.10;0.10;;;;;;;;;;5121994;27;20257;-81
2022/05/31 00:36:00;;;;;;;0.10;0.10;;;;;;;;;;5109950;27;20247;-80
2022/05/31 00:38:26;;;;;;;0.10;0.10;;;;;;;;;;5123015;27;20209;-81
2022/05/31 00:40:52;;;;;;;0.10;0.10;;;;;;;;;;5108128;27;20314;-81
2022/05/31 00:43:22;;;;;;;0.10;0.10;;;;;;;;;;5125350;27;20424;-80
2022/05/31 00:45:52;;;;;;;0.10;0.10;;;;;;;;;;5107344;27;20237;-81
2022/05/31 00:48:21;;;;;;;0.10;0.10;;;;;;;;;;5125709;27;20218;-81
2022/05/31 00:50:52;;;;;;;0.10;0.10;;;;;;;;;;5107688;27;20245;-81
2022/05/31 00:53:22;;;;;;;0.10;0.10;;;;;;;;;;5125624;27;20252;-80
2022/05/31 00:55:51;;;;;;;0.10;0.10;;;;;;;;;;5106736;27;20253;-81
2022/05/31 00:58:19;;;;;;;0.10;0.10;;;;;;;;;;5125471;27;20210;-80
2022/05/31 01:00:46;;;;;;;0.10;0.10;;;;;;;;;;5106213;27;20590;-81
2022/05/31 01:03:13;;;;;;;0.10;0.10;;;;;;;;;;5126735;27;20227;-81
2022/05/31 01:05:41;;;;;;;0.10;0.10;;;;;;;;;;5104754;27;20468;-81
2022/05/31 01:08:08;;;;;;;0.10;0.10;;;;;;;;;;5128114;27;20242;-80
2022/05/31 01:10:34;;;;;;;0.10;0.10;;;;;;;;;;5103240;27;20368;-80
2022/05/31 01:13:01;;;;;;;0.10;0.10;;;;;;;;;;5129997;27;20197;-80
2022/05/31 01:49:39;;;;;;;0.10;0.10;;;;;;;;;;5105827;28;20291;-81
2022/05/31 01:52:06;;;;;;;0.10;0.10;;;;;;;;;;5127553;27;20277;-81
2022/05/31 01:54:33;;;;;;;0.10;0.10;;;;;;;;;;5105448;28;20234;-81
2022/05/31 01:57:02;;;;;;;0.10;0.10;;;;;;;;;;5126161;27;20392;-82
2022/05/31 01:59:30;;;;;;;0.10;0.10;;;;;;;;;;5105958;28;20273;-81
2022/05/31 02:05:00;;;;;;;0.10;0.10;;;;;;;;;;5104719;28;20547;-81
2022/05/31 02:07:28;;;;;;;0.10;0.10;;;;;;;;;;5126666;27;20441;-81
2022/05/31 02:09:55;;;;;;;0.10;0.10;;;;;;;;;;5105389;28;20205;-82
2022/05/31 02:12:22;;;;;;;0.10;0.10;;;;;;;;;;5126427;27;20253;-81
2022/05/31 02:14:49;;;;;;;0.10;0.10;;;;;;;;;;5104960;28;20200;-81
2022/05/31 02:17:16;;;;;;;0.10;0.10;;;;;;;;;;5127145;27;20242;-80
2022/05/31 02:19:43;;;;;;;0.10;0.10;;;;;;;;;;5105158;28;20205;-81
2022/05/31 02:22:12;;;;;;;0.10;0.10;;;;;;;;;;5112864;27;20244;-81
2022/05/31 02:24:39;;;;;;;0.10;0.10;;;;;;;;;;5104836;28;20294;-81
2022/05/31 02:27:07;;;;;;;0.10;0.10;;;;;;;;;;5126668;27;20278;-80
2022/05/31 02:29:35;;;;;;;0.10;0.10;;;;;;;;;;5104314;28;20203;-81
2022/05/31 02:32:02;;;;;;;0.10;0.10;;;;;;;;;;5125695;27;20474;-81
2022/05/31 02:34:29;;;;;;;0.10;0.10;;;;;;;;;;5105691;27;20190;-81
2022/05/31 02:36:56;;;;;;;0.10;0.10;;;;;;;;;;5123953;27;20241;-81
2022/05/31 02:39:24;;;;;;;0.10;0.10;;;;;;;;;;5106885;27;20212;-81
2022/05/31 02:41:51;;;;;;;0.10;0.10;;;;;;;;;;5122406;27;20471;-81
2022/05/31 02:44:18;;;;;;;0.10;0.10;;;;;;;;;;5108524;27;20292;-81
2022/05/31 02:46:44;;;;;;;0.10;0.10;;;;;;;;;;5120683;27;20538;-81
2022/05/31 02:49:11;;;;;;;0.10;0.10;;;;;;;;;;5109694;27;20295;-81
2022/05/31 02:51:38;;;;;;;0.00;0.00;;;;;;;;;;5118848;27;20286;-81
2022/05/31 02:54:05;;;;;;;0.10;0.10;;;;;;;;;;5111742;28;20198;-80
2022/05/31 02:56:33;;;;;;;0.10;0.10;;;;;;;;;;5117154;27;20239;-82
2022/05/31 02:58:59;;;;;;;0.10;0.10;;;;;;;;;;5113240;27;20257;-82
2022/05/31 03:01:27;;;;;;;0.10;0.10;;;;;;;;;;5115521;28;20256;-81
2022/05/31 03:03:53;;;;;;;0.10;0.10;;;;;;;;;;5114378;28;20224;-81
2022/05/31 03:06:20;;;;;;;0.10;0.10;;;;;;;;;;5113667;28;20548;-82
2022/05/31 03:08:46;;;;;;;0.10;0.10;;;;;;;;;;5116409;28;20674;-81
2022/05/31 03:11:15;;;;;;;0.10;0.10;;;;;;;;;;5110678;28;20251;-82
2022/05/31 03:13:43;;;;;;;0.10;0.10;;;;;;;;;;5117651;28;20220;-80
2022/05/31 03:16:10;;;;;;;0.10;0.10;;;;;;;;;;5110440;28;20298;-81
2022/05/31 03:18:39;;;;;;;0.10;0.10;;;;;;;;;;5118989;28;20525;-81
2022/05/31 03:21:08;;;;;;;0.10;0.10;;;;;;;;;;5109783;28;20586;-82
2022/05/31 03:23:39;;;;;;;0.10;0.10;;;;;;;;;;5120730;28;20204;-81
2022/05/31 03:26:08;;;;;;;0.10;0.10;;;;;;;;;;5113805;27;20323;-82
2022/05/31 03:28:35;;;;;;;0.10;0.10;;;;;;;;;;5123894;27;20216;-82
2022/05/31 03:31:03;;;;;;;0.10;0.10;;;;;;;;;;5113049;27;20302;-81
2022/05/31 03:33:30;;;;;;;0.10;0.10;;;;;;;;;;5125311;27;20391;-81
2022/05/31 03:35:57;;;;;;;0.10;0.10;;;;;;;;;;5111517;27;20279;-82
2022/05/31 03:38:23;;;;;;;0.10;0.10;;;;;;;;;;5126978;27;20455;-81
2022/05/31 03:41:00;;;;;;;0.10;0.10;;;;;;;;;;5109552;27;20449;-81
2022/05/31 03:43:27;;;;;;;0.10;0.10;;;;;;;;;;5126262;27;20205;-82
2022/05/31 03:45:54;;;;;;;0.10;0.10;;;;;;;;;;5110287;27;20297;-81
2022/05/31 03:48:21;;;;;;;0.10;0.10;;;;;;;;;;5127443;27;20198;-81
2022/05/31 03:50:57;;;;;;;0.10;0.10;;;;;;;;;;5105092;27;20280;-81
2022/05/31 03:53:24;;;;;;;0.10;0.10;;;;;;;;;;5126090;27;20533;-81
2022/05/31 03:55:50;;;;;;;0.10;0.10;;;;;;;;;;5109310;27;20237;-82
2022/05/31 03:58:16;;;;;;;0.10;0.10;;;;;;;;;;5127942;27;20260;-82
2022/05/31 04:00:43;;;;;;;0.10;0.10;;;;;;;;;;5106765;27;20241;-81
2022/05/31 04:03:09;;;;;;;0.10;0.10;;;;;;;;;;5130075;27;20253;-80
2022/05/31 04:05:37;;;;;;;0.10;0.10;;;;;;;;;;5104577;27;20393;-82
2022/05/31 04:08:04;;;;;;;0.10;0.10;;;;;;;;;;5131733;27;20249;-80
2022/05/31 04:10:31;;;;;;;0.10;0.10;;;;;;;;;;5103748;27;20256;-82
2022/05/31 04:13:00;;;;;;;0.10;0.10;;;;;;;;;;5133731;27;20349;-80
2022/05/31 04:15:27;;;;;;;0.10;0.10;;;;;;;;;;5102298;27;20254;-81
2022/05/31 04:17:53;;;;;;;0.10;0.10;;;;;;;;;;5134990;27;20248;-82
2022/05/31 04:20:21;;;;;;;0.10;0.10;;;;;;;;;;5100442;27;20566;-82
2022/05/31 04:22:48;;;;;;;0.10;0.10;;;;;;;;;;5135717;27;20213;-81
2022/05/31 04:25:14;;;;;;;0.10;0.10;;;;;;;;;;5098172;27;20231;-82
2022/05/31 04:27:41;;;;;;;0.10;0.10;;;;;;;;;;5136699;27;20234;-80
2022/05/31 04:30:08;;;;;;;0.10;0.10;;;;;;;;;;5107605;28;20323;-83
2022/05/31 04:32:34;;;;;;;0.10;0.10;;;;;;;;;;5094865;28;20207;-84
2022/05/31 04:35:01;;;;;;;0.10;0.10;;;;;;;;;;5105981;28;20498;-80
2022/05/31 04:37:28;;;;;;;0.10;0.10;;;;;;;;;;5128516;27;20238;-82
2022/05/31 04:39:56;;;;;;;0.10;0.10;;;;;;;;;;5106227;28;20206;-81
2022/05/31 04:42:22;;;;;;;0.10;0.10;;;;;;;;;;5128122;27;20298;-80
2022/05/31 04:44:48;;;;;;;0.10;0.10;;;;;;;;;;5106206;28;20304;-81
2022/05/31 04:47:15;;;;;;;0.10;0.10;;;;;;;;;;5128412;27;20236;-80
2022/05/31 04:49:41;;;;;;;0.10;0.10;;;;;;;;;;5106987;28;20204;-81
2022/05/31 04:52:07;;;;;;;0.10;0.10;;;;;;;;;;5129092;27;20496;-80
2022/05/31 04:54:33;;;;;;;0.10;0.10;;;;;;;;;;5106995;28;20491;-80
2022/05/31 04:57:01;;;;;;;0.10;0.10;;;;;;;;;;5127027;27;20240;-80
2022/05/31 04:59:27;;;;;;;0.10;0.10;;;;;;;;;;5107918;27;20254;-82
2022/05/31 05:01:54;;;;;;;0.10;0.10;;;;;;;;;;5125286;27;20286;-81
2022/05/31 05:04:20;;;;;;;0.10;0.10;;;;;;;;;;5110098;27;20445;-82
2022/05/31 05:06:46;;;;;;;0.10;0.10;;;;;;;;;;5123574;27;20537;-81
2022/05/31 05:09:12;;;;;;;0.10;0.10;;;;;;;;;;5111321;27;20202;-82
2022/05/31 05:11:39;;;;;;;0.10;0.10;;;;;;;;;;5121313;27;20262;-82
2022/05/31 05:14:06;;;;;;;0.10;0.10;;;;;;;;;;5113853;27;20202;-82
2022/05/31 05:16:33;;;;;;;0.10;0.10;;;;;;;;;;5119363;27;20241;-81
2022/05/31 05:18:59;;;;;;;0.10;0.10;;;;;;;;;;5115304;27;20202;-81
2022/05/31 05:21:26;;;;;;;0.10;0.10;;;;;;;;;;5117367;27;20306;-81
2022/05/31 05:23:52;;;;;;;0.10;0.10;;;;;;;;;;5116966;27;20437;-81
2022/05/31 05:26:18;;;;;;;0.10;0.10;;;;;;;;;;5115954;27;20237;-82
2022/05/31 05:31:32;;;;;;;0.10;0.10;;;;;;;;;;5118268;27;20289;-81
2022/05/31 05:34:00;;;;;;;0.10;0.10;;;;;;;;;;5114944;27;20229;-81
2022/05/31 05:36:26;;;;;;;0.10;0.10;;;;;;;;;;5117123;27;20247;-81
2022/05/31 05:38:52;;;;;;;0.10;0.10;;;;;;;;;;5116289;27;20229;-81
2022/05/31 05:41:19;;;;;;;0.10;0.10;;;;;;;;;;5115196;27;20266;-82
2022/05/31 05:43:46;;;;;;;0.10;0.10;;;;;;;;;;5117420;27;20202;-82
2022/05/31 05:46:13;;;;;;;0.10;0.10;;;;;;;;;;5112125;27;20237;-81
2022/05/31 05:48:42;;;;;;;0.10;0.10;;;;;;;;;;5119620;27;20246;-82
2022/05/31 05:51:12;;;;;;;0.10;0.10;;;;;;;;;;5112308;27;20267;-82
2022/05/31 05:53:38;;;;;;;0.10;0.10;;;;;;;;;;5119980;27;20504;-82
2022/05/31 05:56:05;;;;;;;0.10;0.10;;;;;;;;;;5111324;27;20266;-81
2022/05/31 05:58:31;;;;;;;0.10;0.10;;;;;;;;;;5121728;27;20209;-82
2022/05/31 06:00:58;;;;;;;0.10;0.10;;;;;;;;;;5108558;27;20480;-81
2022/05/31 06:03:26;;;;;;;0.10;0.10;;;;;;;;;;5124378;27;20400;-81
2022/05/31 06:05:55;;;;;;;0.10;0.10;;;;;;;;;;5103012;27;20240;-81
2022/05/31 06:08:23;;;;;;;0.10;0.10;;;;;;;;;;5123578;27;20207;-81
2022/05/31 06:10:56;;;;;;;0.10;0.10;;;;;;;;;;5100695;27;20249;-81
2022/05/31 06:13:25;;;;;;;0.10;0.10;;;;;;;;;;5124439;27;20434;-82
2022/05/31 06:15:53;;;;;;;0.10;0.10;;;;;;;;;;5107654;27;20332;-82
2022/05/31 06:18:21;;;;;;;0.10;0.10;;;;;;;;;;5124541;27;20194;-82
2022/05/31 06:20:49;;;;;;;0.10;0.10;;;;;;;;;;5105605;27;21029;-81
2022/05/31 06:23:16;;;;;;;0.10;0.10;;;;;;;;;;5125402;27;20205;-82
2022/05/31 06:25:43;;;;;;;0.10;0.10;;;;;;;;;;5104219;27;20244;-82
2022/05/31 06:28:09;;;;;;;0.10;0.10;;;;;;;;;;5125909;27;20234;-83
2022/05/31 06:30:36;;;;;;;0.10;0.10;;;;;;;;;;5102110;27;20296;-84
2022/05/31 06:33:02;;;;;;;0.10;0.10;;;;;;;;;;5130186;27;20276;-82
2022/05/31 06:38:13;;;;;;;0.10;0.10;;;;;;;;;;5126529;27;20210;-83
2022/05/31 06:40:41;;;;;;;0.10;0.10;;;;;;;;;;5104779;27;20243;-82
2022/05/31 06:43:07;;;;;;;0.10;0.10;;;;;;;;;;5129349;27;20208;-81
2022/05/31 06:45:33;;;;;;;0.10;0.10;;;;;;;;;;5102653;27;20245;-82
2022/05/31 06:48:00;;;;;;;0.10;0.10;;;;;;;;;;5129182;27;20281;-79
2022/05/31 06:50:26;;;;;;;0.10;0.10;;;;;;;;;;5097706;28;20246;-80
2022/05/31 06:58:21;;;;;;;0.10;0.10;;;;;;;;;;5122168;27;20638;-80
2022/05/31 07:00:48;;;;;;;0.10;0.10;;;;;;;;;;5103739;27;20244;-82
2022/05/31 07:03:14;;;;;;;0.10;0.10;;;;;;;;;;5123513;27;20247;-79
2022/05/31 07:05:41;;;;;;;0.10;0.10;;;;;;;;;;5101543;28;20388;-79
2022/05/31 07:08:08;;;;;;;0.10;0.10;;;;;;;;;;5125015;28;20213;-79
2022/05/31 07:10:34;;;;;;;0.10;0.10;;;;;;;;;;5099646;28;20244;-79
2022/05/31 07:13:01;;;;;;;0.10;0.10;;;;;;;;;;5127092;28;20501;-79
2022/05/31 07:15:31;;;;;;;0.10;0.10;;;;;;;;;;5098066;28;20236;-78
2022/05/31 07:17:57;;;;;;;0.10;0.10;;;;;;;;;;5128068;28;20502;-80
2022/05/31 07:20:24;;;;;;;0.10;0.10;;;;;;;;;;5096899;28;20212;-78
2022/05/31 07:22:52;;;;;;;0.10;0.10;;;;;;;;;;5129669;28;20256;-80
2022/05/31 07:25:19;;;;;;;0.00;0.00;;;;;;;;;;5095349;28;20230;-78
2022/05/31 07:27:45;;;;;;;0.10;0.10;;;;;;;;;;5130968;28;20241;-79
2022/05/31 07:30:12;;;;;;;0.10;0.10;;;;;;;;;;5092688;28;20206;-80
2022/05/31 07:32:40;;;;;;;0.10;0.10;;;;;;;;;;5133328;28;20211;-79
2022/05/31 07:35:06;;;;;;;0.10;0.10;;;;;;;;;;5092170;28;20427;-78
2022/05/31 07:37:33;;;;;;;0.00;0.00;;;;;;;;;;5134048;28;20199;-79
2022/05/31 07:39:59;;;;;;;0.10;0.10;;;;;;;;;;5102174;28;20282;-79
2022/05/31 07:42:25;;;;;;;0.00;0.00;;;;;;;;;;5124210;28;20243;-80
2022/05/31 07:44:55;;;;;;;0.03;0.03;;;;;;;;;;5101818;28;20196;-78
2022/05/31 07:47:21;;;;;;;0.03;0.03;;;;;;;;;;5123918;28;20259;-79
2022/05/31 07:49:49;;;;;;;0.10;0.10;;;;;;;;;;5101898;28;20279;-79
2022/05/31 07:52:16;;;;;;;0.00;0.00;;;;;;;;;;5124744;28;20283;-79
2022/05/31 07:54:42;;;;;;;0.10;0.10;;;;;;;;;;5102563;28;20204;-79
2022/05/31 07:58:30;;;;;;;0.10;0.10;;;;;;;;;;5072404;28;20255;-79
2022/05/31 07:59:55;;;;;;;0.07;0.07;;;;;;;;;;5079513;28;20551;-79
2022/05/31 08:02:21;;;;;;;0.00;0.00;;;;;;;;;;5052830;28;20319;-67
2022/05/31 08:04:49;;;;;;;0.10;0.10;;;;;;;;;;5079076;28;20212;-65
2022/05/31 08:07:16;;;;;;;0.10;0.10;;;;;;;;;;5052284;28;20262;-65
2022/05/31 08:09:42;;;;;;;0.10;0.10;;;;;;;;;;5079994;28;20227;-64
2022/05/31 08:12:09;;;;;;;0.03;0.03;;;;;;;;;;5055818;28;20287;-64
2022/05/31 08:14:35;;;;;;;0.10;0.10;;;;;;;;;;5082497;28;20207;-64
2022/05/31 08:17:03;;;;;;;0.10;0.10;;;;;;;;;;5056255;28;20243;-66
2022/05/31 08:19:29;;;;;;;0.10;0.10;;;;;;;;;;5082028;28;20223;-65
2022/05/31 08:21:57;;;;;;;0.10;0.10;;;;;;;;;;5074164;28;20254;-65
2022/05/31 08:24:24;;;;;;;0.07;0.07;;;;;;;;;;5105140;28;20258;-65
2022/05/31 08:26:51;;;;;;;0.10;0.10;;;;;;;;;;5123519;27;20570;-66
2022/05/31 08:29:17;;;;;;;0.10;0.10;;;;;;;;;;5109735;27;20245;-65
2022/05/31 08:31:43;;;;;;;0.07;0.07;;;;;;;;;;5121401;27;20248;-65
2022/05/31 08:34:10;;;;;;;0.10;0.10;;;;;;;;;;5110778;27;20268;-65
2022/05/31 08:36:36;;;;;;;0.00;0.00;;;;;;;;;;5119036;27;20477;-65
2022/05/31 08:39:04;;;;;;;0.10;0.10;;;;;;;;;;5112627;27;20207;-66
2022/05/31 08:41:32;;;;;;;1.93;1.90;;;;;;;;;;5117407;27;20242;-63
2022/05/31 08:44:05;;;;;;;0.10;0.10;;;;;;;;;;5113694;27;20396;-65
2022/05/31 08:46:33;;;;;;;0.10;0.10;;;;;;;;;;5117450;27;20619;-65
2022/05/31 08:49:00;;;;;;;0.10;0.10;;;;;;;;;;5113081;27;20283;-64
2022/05/31 08:51:53;;;;;;;0.10;0.10;;;;;;;;;;5116427;27;20245;-64
2022/05/31 08:57:12;;;;;;;0.10;0.10;;;;;;;;;;5112308;27;20234;-77
2022/05/31 08:59:41;;;;;;;0.10;0.10;;;;;;;;;;5104797;28;20209;-77
2022/05/31 09:02:11;;;;;;;0.00;0.00;;;;;;;;;;5126280;27;20251;-80
2022/05/31 09:04:41;;;;;;;0.00;0.00;;;;;;;;;;5104278;28;20453;-80
2022/05/31 09:07:09;;;;;;;0.00;0.00;;;;;;;;;;5126282;27;20271;-77
2022/05/31 09:09:39;;;;;;;0.00;0.00;;;;;;;;;;5104423;28;20204;-73
2022/05/31 09:12:10;;;;;;;0.10;0.10;;;;;;;;;;5126111;27;20240;-71
2022/05/31 09:14:41;;;;;;;0.10;0.10;;;;;;;;;;5104192;28;20557;-72
2022/05/31 09:17:13;;;;;;;0.10;0.10;;;;;;;;;;5126249;27;20292;-70
2022/05/31 09:19:42;;;;;;;0.07;0.07;;;;;;;;;;5104548;28;20211;-72
2022/05/31 09:22:08;;;;;;;0.10;0.10;;;;;;;;;;5126353;27;20248;-71
2022/05/31 09:24:38;;;;;;;0.10;0.10;;;;;;;;;;5104357;28;20528;-72
2022/05/31 09:27:07;;;;;;;0.10;0.10;;;;;;;;;;5125646;27;20244;-71
2022/05/31 09:29:40;;;;;;;0.10;0.10;;;;;;;;;;5104198;28;20221;-70
2022/05/31 09:32:12;;;;;;;0.10;0.10;;;;;;;;;;5126351;27;20243;-70
2022/05/31 09:34:53;;;;;;;0.00;0.00;;;;;;;;;;5104134;28;20238;-71
2022/05/31 09:37:26;;;;;;;0.10;0.10;;;;;;;;;;5123569;27;20237;-70
2022/05/31 09:40:01;;;;;;;0.10;0.10;;;;;;;;;;5104442;28;20204;-69
2022/05/31 09:42:32;;;;;;;0.00;0.00;;;;;;;;;;5126173;27;20239;-69
2022/05/31 09:45:02;;;;;;;0.10;0.10;;;;;;;;;;5104568;28;20206;-70
2022/05/31 09:47:29;;;;;;;0.10;0.10;;;;;;;;;;5126565;27;20448;-70
2022/05/31 09:49:55;;;;;;;0.00;0.00;;;;;;;;;;5104582;28;20280;-70
2022/05/31 09:52:23;;;;;;;0.05;0.05;;;;;;;;;;5125727;27;20420;-64
2022/05/31 09:57:58;;;;;;;0.10;0.10;;;;;;;;;;5101377;28;20388;-64
2022/05/31 10:00:24;;;;;;;0.00;0.00;;;;;;;;;;5098073;27;20420;-64
2022/05/31 10:02:58;;;;;;;0.10;0.10;;;;;;;;;;5130448;27;20231;-64
2022/05/31 10:05:25;;;;;;;0.10;0.10;;;;;;;;;;5097492;27;20340;-65
2022/05/31 10:07:51;;;;;;;0.10;0.10;;;;;;;;;;5130780;27;20405;-63
2022/05/31 10:10:19;;;;;;;0.10;0.10;;;;;;;;;;5095269;27;20240;-63
2022/05/31 10:12:50;;;;;;;0.10;0.10;;;;;;;;;;5132181;27;20202;-64
2022/05/31 10:15:34;;;;;;;0.00;0.00;;;;;;;;;;5095441;27;20204;-64
2022/05/31 10:18:02;;;;;;;0.00;0.00;;;;;;;;;;5127520;27;20201;-64
2022/05/31 10:20:28;;;;;;;0.00;0.00;;;;;;;;;;5098437;27;20430;-63
2022/05/31 10:22:56;;;;;;;0.10;0.10;;;;;;;;;;5129418;27;20290;-65
2022/05/31 10:25:23;;;;;;;0.10;0.10;;;;;;;;;;5096993;27;20265;-64
2022/05/31 10:27:56;;;;;;;0.10;0.10;;;;;;;;;;5130062;27;20232;-64
2022/05/31 10:30:23;;;;;;;0.00;0.00;;;;;;;;;;5097076;27;20347;-64
2022/05/31 10:32:52;;;;;;;0.10;0.10;;;;;;;;;;5130162;27;20270;-64
2022/05/31 10:35:20;;;;;;;0.10;0.10;;;;;;;;;;5095194;27;20363;-64
2022/05/31 10:37:55;;;;;;;0.00;0.00;;;;;;;;;;5131372;27;20538;-74
2022/05/31 10:40:23;;;;;;;0.00;0.00;;;;;;;;;;5096133;28;20232;-76
2022/05/31 10:42:52;;;;;;;0.03;0.03;;;;;;;;;;5130618;27;20256;-75
2022/05/31 10:45:32;;;;;;;4.10;3.20;;;;;;;;;;5095677;27;20217;-83
2022/05/31 10:48:01;;;;;;;0.00;0.00;;;;;;;;;;5127543;27;20479;-76
2022/05/31 10:50:33;;;;;;;0.00;0.00;;;;;;;;;;5098066;27;20254;-77
2022/05/31 10:53:05;;;;;;;0.10;0.10;;;;;;;;;;5128230;27;20240;-77
2022/05/31 10:55:37;;;;;;;0.00;0.00;;;;;;;;;;5099410;27;20247;-75
2022/05/31 10:58:11;;;;;;;0.00;0.00;;;;;;;;;;5126055;27;20206;-76
2022/05/31 11:00:40;;;;;;;0.10;0.10;;;;;;;;;;5100595;27;20256;-79
2022/05/31 11:03:29;;;;;;;0.10;0.10;;;;;;;;;;5125190;27;20210;-78
2022/05/31 11:06:07;;;;;;;0.00;0.00;;;;;;;;;;5104856;28;20583;-65
2022/05/31 11:11:29;;;;;;;0.10;0.10;;;;;;;;;;5113462;28;20309;-64
2022/05/31 11:14:01;;;;;;;0.00;0.00;;;;;;;;;;5111123;28;20203;-65
2022/05/31 11:16:34;;;;;;;0.10;0.10;;;;;;;;;;5114166;28;20493;-64
2022/05/31 11:19:07;;;;;;;0.00;0.00;;;;;;;;;;5110292;28;20218;-64
2022/05/31 11:21:43;;;;;;;0.00;0.00;;;;;;;;;;5115834;28;20428;-63
2022/05/31 11:24:20;;;;;;;0.00;0.00;;;;;;;;;;5107476;28;20221;-63
2022/05/31 11:26:52;;;;;;;0.00;0.00;;;;;;;;;;5118987;28;20495;-65
2022/05/31 11:29:42;;;;;;;0.08;0.08;;;;;;;;;;5105400;28;20428;-65
2022/05/31 11:32:13;;;;;;;0.00;0.00;;;;;;;;;;5107002;28;20328;-66
2022/05/31 11:34:46;;;;;;;0.00;0.00;;;;;;;;;;5102041;28;20393;-64
2022/05/31 11:37:21;;;;;;;0.00;0.00;;;;;;;;;;5123869;28;20245;-65
2022/05/31 11:39:54;;;;;;;0.17;0.17;;;;;;;;;;5102201;28;20203;-65
2022/05/31 11:42:26;;;;;;;0.10;0.10;;;;;;;;;;5123914;28;20240;-65
2022/05/31 11:45:01;;;;;;;0.00;0.00;;;;;;;;;;5103524;28;20204;-64
2022/05/31 11:47:38;;;;;;;0.00;0.00;;;;;;;;;;5127942;27;20300;-64
2022/05/31 11:50:12;;;;;;;0.03;0.03;;;;;;;;;;5098372;28;20491;-65
2022/05/31 11:52:45;;;;;;;0.10;0.10;;;;;;;;;;5136501;27;20476;-65
2022/05/31 11:55:32;;;;;;;0.00;0.00;;;;;;;;;;5096920;28;20253;-65
2022/05/31 11:58:17;;;;;;;0.00;0.00;;;;;;;;;;5131247;27;20188;-65
2022/05/31 12:00:47;;;;;;;0.00;0.00;;;;;;;;;;5105105;27;20245;-65
2022/05/31 12:03:16;;;;;;;0.08;0.08;;;;;;;;;;5127292;27;20227;-65
2022/05/31 12:05:48;;;;;;;0.10;0.10;;;;;;;;;;5105778;27;20248;-65
2022/05/31 12:08:17;;;;;;;0.00;0.00;;;;;;;;;;5126103;27;20213;-65
2022/05/31 12:10:47;;;;;;;0.00;0.00;;;;;;;;;;5105165;27;20241;-66
2022/05/31 12:13:15;;;;;;;0.10;0.10;;;;;;;;;;5126256;27;20198;-64
2022/05/31 12:15:43;;;;;;;0.10;0.10;;;;;;;;;;5104489;27;20378;-65
2022/05/31 12:18:14;;;;;;;0.00;0.00;;;;;;;;;;5127373;27;20567;-65
2022/05/31 12:20:42;;;;;;;0.10;0.10;;;;;;;;;;5104735;27;20246;-65
2022/05/31 12:23:14;;;;;;;0.10;0.10;;;;;;;;;;5127846;27;20357;-66
2022/05/31 12:25:43;;;;;;;0.10;0.10;;;;;;;;;;5104449;27;20234;-64
2022/05/31 12:28:13;;;;;;;0.00;0.00;;;;;;;;;;5126676;27;20412;-65
2022/05/31 12:30:46;;;;;;;0.10;0.10;;;;;;;;;;5103984;27;20261;-65
2022/05/31 12:33:28;;;;;;;0.00;0.00;;;;;;;;;;5125939;27;20296;-65
2022/05/31 12:35:56;;;;;;;0.03;0.03;;;;;;;;;;5105829;27;20249;-64
2022/05/31 12:38:24;;;;;;;0.10;0.10;;;;;;;;;;5124148;27;20200;-67
2022/05/31 12:40:52;;;;;;;0.00;0.00;;;;;;;;;;5107592;27;20250;-67
2022/05/31 12:43:33;;;;;;;0.00;0.00;;;;;;;;;;5125585;27;20225;-68
2022/05/31 12:46:00;;;;;;;0.00;0.00;;;;;;;;;;5109108;27;20290;-68
2022/05/31 12:48:28;;;;;;;0.08;0.08;;;;;;;;;;5123603;27;20244;-67
2022/05/31 12:51:19;;;;;;;0.00;0.00;;;;;;;;;;5107771;27;20238;-68
2022/05/31 12:53:57;;;;;;;0.00;0.00;;;;;;;;;;5116767;27;20287;-67
2022/05/31 12:56:37;;;;;;;0.10;0.10;;;;;;;;;;5114913;27;20583;-67
2022/05/31 12:59:05;;;;;;;0.00;0.00;;;;;;;;;;5111839;27;20421;-67
2022/05/31 13:01:33;;;;;;;0.03;0.03;;;;;;;;;;5117114;27;20252;-66
2022/05/31 13:04:07;;;;;;;0.00;0.00;;;;;;;;;;5113037;27;20394;-67
2022/05/31 13:06:38;;;;;;;0.03;0.03;;;;;;;;;;5118009;27;20239;-66
2022/05/31 13:09:11;;;;;;;0.08;0.08;;;;;;;;;;5111391;27;20404;-67
2022/05/31 13:20:04;;;;;;;0.00;0.00;;;;;;;;;;5104398;28;20243;-67
2022/05/31 13:22:37;;;;;;;0.10;0.10;;;;;;;;;;5126052;27;20250;-67
2022/05/31 13:25:06;;;;;;;0.20;0.20;;;;;;;;;;5104133;28;20209;-68
2022/05/31 13:27:37;;;;;;;0.10;0.10;;;;;;;;;;5091604;28;20303;-67
2022/05/31 13:30:10;;;;;;;0.05;0.05;;;;;;;;;;5104023;28;20466;-66
2022/05/31 13:32:38;;;;;;;0.00;0.00;;;;;;;;;;5092547;28;20415;-67
2022/05/31 13:35:12;;;;;;;0.00;0.00;;;;;;;;;;5103409;28;20213;-66
2022/05/31 13:37:49;;;;;;;0.10;0.10;;;;;;;;;;5096881;28;20581;-66
2022/05/31 13:40:20;;;;;;;0.08;0.08;;;;;;;;;;5095535;27;20270;-67
2022/05/31 13:42:47;;;;;;;0.00;0.00;;;;;;;;;;5132297;27;20202;-66
2022/05/31 13:45:16;;;;;;;0.00;0.00;;;;;;;;;;5095585;27;20411;-67
2022/05/31 13:47:47;;;;;;;0.00;0.00;;;;;;;;;;5133145;27;20551;-66
2022/05/31 13:50:17;;;;;;;0.10;0.10;;;;;;;;;;5095399;27;20265;-68
2022/05/31 13:52:48;;;;;;;0.10;0.10;;;;;;;;;;5132733;27;20191;-67
2022/05/31 13:55:16;;;;;;;0.00;0.00;;;;;;;;;;5095730;27;20203;-67
2022/05/31 13:57:52;;;;;;;0.10;0.10;;;;;;;;;;5132552;27;20224;-67
2022/05/31 14:00:31;;;;;;;0.00;0.00;;;;;;;;;;5095926;27;20525;-67
2022/05/31 14:03:06;;;;;;;0.10;0.10;;;;;;;;;;5128886;27;20219;-66
2022/05/31 14:05:34;;;;;;;0.03;0.03;;;;;;;;;;5099765;27;20243;-66
2022/05/31 14:08:01;;;;;;;0.00;0.00;;;;;;;;;;5126728;27;20227;-67
2022/05/31 14:10:30;;;;;;;0.00;0.00;;;;;;;;;;5098931;27;20237;-66
2022/05/31 14:12:59;;;;;;;0.00;0.00;;;;;;;;;;5128501;27;20209;-66
2022/05/31 14:15:28;;;;;;;0.00;0.00;;;;;;;;;;5098156;27;20296;-65
2022/05/31 14:18:04;;;;;;;0.10;0.10;;;;;;;;;;5128862;27;20200;-67
2022/05/31 14:20:34;;;;;;;0.10;0.10;;;;;;;;;;5099153;27;20241;-68
2022/05/31 14:23:02;;;;;;;0.03;0.03;;;;;;;;;;5127337;27;20273;-66
2022/05/31 14:25:29;;;;;;;0.08;0.08;;;;;;;;;;5098783;27;20329;-67
2022/05/31 14:27:55;;;;;;;0.00;0.00;;;;;;;;;;5128420;27;20238;-67
2022/05/31 14:30:30;;;;;;;0.00;0.00;;;;;;;;;;5096899;27;20277;-67
2022/05/31 14:33:01;;;;;;;0.10;0.10;;;;;;;;;;5128391;27;20217;-66
2022/05/31 14:35:31;;;;;;;0.10;0.10;;;;;;;;;;5098033;27;20233;-68
2022/05/31 14:37:58;;;;;;;0.10;0.10;;;;;;;;;;5128313;27;20205;-67
2022/05/31 14:40:27;;;;;;;0.00;0.00;;;;;;;;;;5097269;27;20498;-67
2022/05/31 14:42:58;;;;;;;0.10;0.10;;;;;;;;;;5129287;27;20218;-67
2022/05/31 14:45:30;;;;;;;0.00;0.00;;;;;;;;;;5096991;27;20210;-66
2022/05/31 14:47:58;;;;;;;0.05;0.05;;;;;;;;;;5128723;27;20412;-69
2022/05/31 14:50:26;;;;;;;0.10;0.10;;;;;;;;;;5096916;28;20456;-67
2022/05/31 14:52:54;;;;;;;0.00;0.00;;;;;;;;;;5129294;27;20203;-68
2022/05/31 14:55:26;;;;;;;0.10;0.10;;;;;;;;;;5095828;28;20211;-67
2022/05/31 15:00:48;;;;;;;0.03;0.03;;;;;;;;;;5102710;27;20279;-66
2022/05/31 15:03:24;;;;;;;0.00;0.00;;;;;;;;;;5123396;27;20406;-67
2022/05/31 15:05:56;;;;;;;0.10;0.10;;;;;;;;;;5103720;28;20583;-68
2022/05/31 15:08:30;;;;;;;0.00;0.00;;;;;;;;;;5120881;28;20240;-67
2022/05/31 15:18:56;;;;;;;0.13;0.13;;;;;;;;;;5105041;28;20397;-67
2022/05/31 15:19:29;;;;;;;0.05;0.05;;;;;;;;;;5106014;28;20201;-67
2022/05/31 15:21:55;;;;;;;0.00;0.00;;;;;;;;;;5125449;27;20238;-66
2022/05/31 15:24:26;;;;;;;0.00;0.00;;;;;;;;;;5108841;27;20280;-66
2022/05/31 15:26:52;;;;;;;0.10;0.10;;;;;;;;;;5124018;27;20299;-67
2022/05/31 15:29:20;;;;;;;0.00;0.00;;;;;;;;;;5109680;27;20416;-68
2022/05/31 15:31:46;;;;;;;0.10;0.10;;;;;;;;;;5122505;27;20288;-67
2022/05/31 15:34:13;;;;;;;0.00;0.00;;;;;;;;;;5111467;27;20491;-66
2022/05/31 15:36:42;;;;;;;0.08;0.08;;;;;;;;;;5120355;27;20237;-66
2022/05/31 15:39:10;;;;;;;0.10;0.10;;;;;;;;;;5113002;27;20214;-66
2022/05/31 15:41:38;;;;;;;0.00;0.00;;;;;;;;;;5119973;27;20264;-66
2022/05/31 15:44:05;;;;;;;0.00;0.00;;;;;;;;;;5113059;27;20203;-65
2022/05/31 15:46:34;;;;;;;0.00;0.00;;;;;;;;;;5118565;27;20243;-65
2022/05/31 15:49:01;;;;;;;0.00;0.00;;;;;;;;;;5114238;27;20541;-67
2022/05/31 15:51:30;;;;;;;0.10;0.10;;;;;;;;;;5117605;27;20478;-66
2022/05/31 15:53:58;;;;;;;0.00;0.00;;;;;;;;;;5115377;27;20211;-66
2022/05/31 15:56:30;;;;;;;0.10;0.10;;;;;;;;;;5116427;27;20233;-66
2022/05/31 15:58:57;;;;;;;0.00;0.00;;;;;;;;;;5115187;27;20228;-67
2022/05/31 16:01:23;;;;;;;0.00;0.00;;;;;;;;;;5116258;27;20286;-66
2022/05/31 16:03:50;;;;;;;0.00;0.00;;;;;;;;;;5116938;27;20272;-66
2022/05/31 16:06:18;;;;;;;0.10;0.10;;;;;;;;;;5113873;27;20240;-66
2022/05/31 16:08:45;;;;;;;0.10;0.10;;;;;;;;;;5118102;27;20405;-66